Miramar Marine Corps Air Station San Diego US
ICAO: KNKX
IATA: NKX
Category: Medium
Scheduled Services: No

Elevation: 477 ft
TransAlt. 18000 ft.

Airport Communications:
SOCAL APP:132.2
ATIS:35.2
CLNC DEL:125.975
SOCAL DEP:119.6
GND:128.625
PMSV METRO:34.24
PTD:33.562
TWR:135.2

KNKX Zoom In..

If you have problems with the map follow the link
https://www.worldairports.se/pages/airport.php?
ICAO=KNKX

Runways:

(A) RW 06L length 12000 ft width 200 ft
---- / hdg 60

(B) RW 06R length 8001 ft width 200 ft
---- / hdg 60

(C) RW 24L length 8001 ft width 200 ft
---- / hdg 240

(D) RW 24R length 12000 ft width 200 ft
ILS 111.15 / hdg 240

Location; KNKX
Day. 16 / Time. 01.55 Zulu
* Altimeter: 30.07
* Temperature: 12° c. 53.6°f.
* Wind from: 100° Speed 03 kn.
Dewpoint: 05° c.
Visibility: 10 Statute Miles.
Clouds: Clear (automated report).

KNKX 160155Z 10003KT 10SM CLR 12/05 A3007 RMK AO2 SLP180 T01170050


Wind From 100°
Speed 03 kn.

 
 
jpsmedia worldairports.se 2019   terms of use